Data for 07/28/2005

Time Sea-Level Adjusted Pressure Absolute Pressure Temperature Relative Humidity Dew Point   
(mb) (inHg) (mb) (inHg) (C) (F) (%) (C) (F)
00:05 1020 30.12 849 25.07 20.5 69 30 2.6 36.7
00:10 1020 30.12 849 25.07 20.5 68.9 31 2.9 37.2
00:15 1020 30.12 849 25.07 20.3 68.6 31 3 37.3
00:20 1020 30.12 850 25.1 20.1 68.2 31 2.8 37
00:25 1020 30.12 850 25.1 20.3 68.5 32 3 37.4
00:30 1020 30.12 850 25.1 20.3 68.5 31 3 37.3
00:35 1020 30.12 850 25.1 20.3 68.6 31 3 37.4
00:40 1020 30.12 850 25.1 20.3 68.6 31 2.9 37.2
00:45 1020 30.12 850 25.1 20.3 68.6 31 2.8 37.1
00:50 1020 30.12 850 25.1 20.2 68.4 32 3 37.5
00:55 1020 30.12 850 25.1 20.1 68.2 32 3 37.4
01:00 1020 30.12 849 25.07 20 68 32 3.1 37.6
01:05 1020 30.12 850 25.1 19.9 67.8 32 3.1 37.5
01:10 1020 30.12 850 25.1 19.9 67.7 32 3 37.5
01:15 1020 30.12 850 25.1 20 67.9 32 3 37.4
01:20 1020 30.12 850 25.1 20 67.9 32 3 37.3
01:25 1020 30.12 850 25.1 19.9 67.8 33 3.1 37.6
01:30 1020 30.12 850 25.1 19.8 67.6 32 2.9 37.3
01:35 1020 30.12 850 25.1 19.7 67.5 33 3 37.5
01:40 1020 30.12 850 25.1 19.2 66.5 35 3.6 38.5
01:45 1020 30.12 850 25.1 17.4 63.2 40 3.6 38.5
01:50 1020 30.12 849 25.07 16.6 61.9 41 3.3 37.9
01:55 1020 30.12 849 25.07 16.5 61.7 43 3.9 39
02:00 1020 30.12 850 25.1 16.6 61.8 42 3.8 38.8
02:05 1020 30.12 850 25.1 16.7 62 40 3.1 37.5
02:10 1020 30.12 850 25.1 16.9 62.3 40 3.1 37.7
02:15 1020 30.12 850 25.1 16.6 61.9 40 3.2 37.7
02:20 1020 30.12 850 25.1 16.4 61.5 41 3.4 38
02:25 1020 30.12 850 25.1 16.3 61.4 40 2.9 37.3
02:30 1020 30.12 850 25.1 16.2 61.2 41 3.1 37.6
02:35 1020 30.12 850 25.1 16 60.8 41 2.9 37.2
02:40 1020 30.12 850 25.1 16 60.7 41 2.7 36.9
02:45 1020 30.12 850 25.1 15.9 60.6 43 3.6 38.4
02:50 1020 30.12 850 25.1 16.2 61.1 40 2.7 36.9
02:55 1020 30.12 850 25.1 16.4 61.5 40 2.8 37
03:00 1020 30.12 850 25.1 16.6 61.9 40 2.9 37.2
03:05 1020 30.12 850 25.1 16.4 61.5 42 3.5 38.3
03:10 1020 30.12 850 25.1 16.5 61.8 39 2.7 36.8
03:15 1020 30.12 849 25.07 16.8 62.3 40 3.1 37.6
03:20 1020 30.12 850 25.1 16.5 61.7 41 3.3 37.9
03:25 1020 30.12 850 25.1 15.8 60.5 43 3.3 38
03:30 1020 30.12 850 25.1 15.5 59.9 44 3.2 37.8
03:35 1020 30.12 850 25.1 15.5 59.8 44 3.3 37.9
03:40 1020 30.12 850 25.1 15.3 59.6 45 3.6 38.4
03:45 1020 30.12 850 25.1 14.9 58.9 46 3.5 38.3
03:50 1020 30.12 849 25.07 14.8 58.6 46 3.5 38.3
03:55 1020 30.12 849 25.07 14.8 58.6 46 3.4 38.2
04:00 1020 30.12 849 25.07 14.9 58.9 46 3.5 38.3
04:05 1020 30.12 849 25.07 15.1 59.2 45 3.5 38.2
04:10 1020 30.12 849 25.07 14.9 58.8 45 3.3 37.9
04:15 1020 30.12 849 25.07 14.8 58.7 46 3.3 38
04:20 1020 30.12 849 25.07 14.7 58.4 46 3.1 37.6
04:25 1020 30.12 849 25.07 14.9 58.8 44 3 37.3
04:30 1020 30.12 849 25.07 15.2 59.4 44 3.2 37.7
04:35 1020 30.12 849 25.07 15.3 59.5 44 3.3 37.9
04:40 1020 30.12 849 25.07 15.1 59.1 45 3.3 37.9
04:45 1020 30.12 849 25.07 15.1 59.2 45 3.4 38.1
04:50 1020 30.12 849 25.07 14.9 58.9 46 3.4 38.1
04:55 1020 30.12 849 25.07 14.9 58.8 46 3.4 38.1
05:00 1020 30.12 849 25.07 15 59 45 3.3 38
05:05 1020 30.12 849 25.07 14.9 58.9 46 3.4 38.1
05:10 1020 30.12 849 25.07 15 58.9 45 3.1 37.6
05:15 1020 30.12 849 25.07 15 59 44 3.1 37.5
05:20 1020 30.12 849 25.07 15.1 59.3 44 3 37.3
05:25 1020 30.12 849 25.07 15.2 59.4 43 2.9 37.3
05:30 1020 30.12 849 25.07 15.1 59.1 44 2.9 37.3
05:35 1020 30.12 849 25.07 15 59 44 2.9 37.3
05:40 1020 30.12 850 25.1 14.9 58.7 44 2.8 37
05:45 1020 30.12 850 25.1 14.7 58.5 44 2.7 36.9
05:50 1020 30.12 850 25.1 14.7 58.4 45 2.8 37
05:55 1020 30.12 850 25.1 14.7 58.4 44 2.5 36.5
06:00 1020 30.12 850 25.1 14.6 58.3 47 3.4 38.1
06:05 1020 30.12 850 25.1 14.6 58.3 45 2.7 36.9
06:10 1020 30.12 850 25.1 14.3 57.7 45 2.7 36.8
06:15 1020 30.12 850 25.1 14.2 57.6 45 2.6 36.6
06:20 1020 30.12 850 25.1 14.1 57.4 46 2.6 36.7
06:25 1020 30.12 850 25.1 14.3 57.7 46 2.8 37.1
06:30 1021 30.15 850 25.1 14.5 58 45 2.6 36.7
06:35 1021 30.15 850 25.1 14.8 58.6 43 2.5 36.6
06:40 1021 30.15 850 25.1 14.7 58.5 50 4.6 40.2
06:45 1021 30.15 850 25.1 14.9 58.8 43 2.6 36.7
06:50 1021 30.15 850 25.1 14.9 58.8 44 2.7 36.9
06:55 1021 30.15 850 25.1 14.8 58.7 44 2.7 36.8
07:00 1021 30.15 850 25.1 14.8 58.7 45 3.2 37.8
07:05 1021 30.15 850 25.1 14.9 58.7 44 2.8 37
07:10 1021 30.15 850 25.1 14.9 58.7 45 3.3 37.9
07:15 1021 30.15 850 25.1 15 58.9 45 3.1 37.6
07:20 1021 30.15 850 25.1 15.3 59.6 45 3.6 38.5
07:25 1021 30.15 850 25.1 15.4 59.7 45 3.7 38.6
07:30 1021 30.15 850 25.1 15.4 59.6 46 3.9 39.1
07:35 1021 30.15 850 25.1 15.4 59.7 47 4.1 39.4
07:40 1021 30.15 850 25.1 15.6 60.1 45 3.9 38.9
07:45 1021 30.15 850 25.1 15.7 60.3 46 4.3 39.7
07:50 1021 30.15 850 25.1 16 60.8 47 4.8 40.6
07:55 1021 30.15 850 25.1 16.4 61.6 45 4.5 40.1
08:00 1021 30.15 850 25.1 16.7 62.1 44 4.6 40.2
08:05 1021 30.15 850 25.1 17.1 62.9 46 5.5 42
08:10 1021 30.15 850 25.1 17.8 64 42 4.7 40.5
08:15 1021 30.15 850 25.1 17.8 64 42 4.8 40.7
08:20 1021 30.15 850 25.1 18.4 65.2 41 5 40.9
08:25 1021 30.15 850 25.1 19 66.2 40 5.1 41.2
08:30 1021 30.15 850 25.1 19.6 67.2 40 5.6 42.1
08:35 1021 30.15 850 25.1 20.3 68.5 36 5 41
08:40 1021 30.15 850 25.1 20.6 69 35 4.6 40.3
08:45 1021 30.15 850 25.1 20.8 69.4 36 5.2 41.4
08:50 1021 30.15 850 25.1 20.3 68.6 36 5 41
08:55 1021 30.15 850 25.1 20.9 69.7 36 5.3 41.6
09:00 1021 30.15 850 25.1 21.2 70.1 37 6.1 43
09:05 1021 30.15 850 25.1 20.3 68.6 39 6.1 42.9
09:10 1021 30.15 850 25.1 19.9 67.8 40 5.9 42.7
09:15 1021 30.15 850 25.1 20.2 68.3 39 6 42.7
09:20 1021 30.15 850 25.1 20.4 68.8 37 5.2 41.4
09:25 1021 30.15 850 25.1 20.3 68.5 36 4.8 40.6
09:30 1021 30.15 850 25.1 20.4 68.7 35 4.4 39.9
09:35 1021 30.15 850 25.1 20.6 69.1 35 4.9 40.8
09:40 1021 30.15 850 25.1 21.2 70.1 34 4.8 40.7
09:45 1021 30.15 850 25.1 21.1 70 35 5.2 41.3
09:50 1021 30.15 850 25.1 21.2 70.2 34 4.9 40.8
09:55 1021 30.15 850 25.1 21.3 70.4 33 4.6 40.3
10:00 1020 30.12 850 25.1 22 71.6 32 4.7 40.5
10:05 1020 30.12 850 25.1 22 71.6 32 4.6 40.2
10:10 1020 30.12 850 25.1 22.1 71.7 32 4.8 40.6
10:15 1020 30.12 850 25.1 22.7 72.8 31 5.1 41.1
10:20 1020 30.12 850 25.1 22.8 73.1 29 4.3 39.7
10:25 1020 30.12 850 25.1 22.7 72.9 30 4.3 39.8
10:30 1020 30.12 850 25.1 23 73.3 30 4.4 40
10:35 1020 30.12 850 25.1 23.1 73.6 30 4.6 40.2
10:40 1020 30.12 849 25.07 23.5 74.3 29 4.7 40.4
10:45 1020 30.12 849 25.07 23.8 74.8 29 5.1 41.1
10:50 1020 30.12 849 25.07 23.8 74.9 30 5.3 41.5
10:55 1020 30.12 849 25.07 24.7 76.5 28 5.3 41.6
11:00 1020 30.12 849 25.07 26.1 78.9 24 4.5 40
11:05 1020 30.12 849 25.07 26.7 80 25 5.1 41.2
11:10 1020 30.12 849 25.07 27 80.6 25 5.5 41.9
11:15 1020 30.12 849 25.07 27.4 81.4 24 5.4 41.7
11:20 1020 30.12 849 25.07 28 82.4 24 5.7 42.2
11:25 1020 30.12 849 25.07 28.6 83.4 24 6.5 43.7
11:30 1020 30.12 849 25.07 28.5 83.3 22 5.4 41.7
11:35 1020 30.12 849 25.07 28.1 82.6 24 5.7 42.3
11:40 1020 30.12 849 25.07 27.9 82.3 23 5.1 41.3
11:45 1020 30.12 849 25.07 27.9 82.1 23 4.8 40.7
11:50 1020 30.12 849 25.07 27.3 81.1 25 5.7 42.2
11:55 1020 30.12 849 25.07 27.6 81.6 23 5.1 41.2
12:00 1020 30.12 849 25.07 27.5 81.6 24 5.5 41.9
12:05 1020 30.12 849 25.07 27.5 81.6 21 3.8 38.8
12:10 1020 30.12 849 25.07 26.7 80.1 26 5.7 42.3
12:15 1020 30.12 849 25.07 27 80.5 23 4.6 40.2
12:20 1020 30.12 849 25.07 27.3 81.1 22 4.3 39.7
12:25 1020 30.12 849 25.07 27.8 82 24 5.4 41.7
12:30 1020 30.12 849 25.07 27.9 82.2 22 4.5 40.2
12:35 1020 30.12 849 25.07 27.4 81.3 22 3.8 38.9
12:40 1020 30.12 849 25.07 28.1 82.7 21 4.4 39.9
12:45 1020 30.12 849 25.07 28.7 83.7 21 4.8 40.7
12:50 1020 30.12 849 25.07 28.7 83.6 22 5.3 41.5
12:55 1020 30.12 849 25.07 28.5 83.4 22 5.1 41.1
13:00 1020 30.12 849 25.07 28.5 83.2 22 5 40.9
13:05 1020 30.12 849 25.07 28.5 83.4 21 4.5 40.1
13:10 1020 30.12 849 25.07 28.3 82.9 21 4.1 39.4
13:15 1020 30.12 849 25.07 27.8 82.1 21 3.7 38.7
13:20 1020 30.12 849 25.07 27.9 82.3 22 4.4 39.8
13:25 1020 30.12 849 25.07 27.9 82.2 22 4.5 40
13:30 1020 30.12 849 25.07 27.5 81.6 23 4.6 40.3
13:35 1020 30.12 849 25.07 27.5 81.4 23 4.5 40.1
13:40 1020 30.12 849 25.07 27.5 81.5 23 4.5 40.1
13:45 1020 30.12 849 25.07 27.6 81.7 22 4.6 40.2
13:50 1020 30.12 849 25.07 27.7 81.9 21 3.7 38.7
13:55 1020 30.12 849 25.07 27.5 81.5 22 4.1 39.4
14:00 1020 30.12 849 25.07 27.1 80.7 22 4.1 39.3
14:05 1020 30.12 849 25.07 27.1 80.7 25 5.4 41.8
14:10 1020 30.12 850 25.1 27.3 81.2 23 4.6 40.4
14:15 1020 30.12 850 25.1 27.5 81.5 22 4 39.3
14:20 1021 30.15 850 25.1 27.3 81.2 24 5.1 41.1
14:25 1021 30.15 850 25.1 26.1 78.9 30 7.5 45.5
14:30 1021 30.15 850 25.1 25.5 78 27 5.4 41.6
14:35 1020 30.12 850 25.1 25.6 78.1 31 7.4 45.3
14:40 1021 30.15 850 25.1 25.4 77.7 32 7.6 45.7
14:45 1021 30.15 850 25.1 25.3 77.5 31 7.4 45.3
14:50 1021 30.15 850 25.1 25.2 77.4 33 8.3 46.9
14:55 1021 30.15 850 25.1 25.4 77.7 34 8.7 47.6
15:00 1021 30.15 850 25.1 25.6 78 39 10.9 51.7
15:05 1021 30.15 850 25.1 25.3 77.5 39 10.5 50.9
15:10 1021 30.15 851 25.13 25 77 28 5.3 41.6
15:15 1021 30.15 851 25.13 25 77 27 5 40.9
15:20 1021 30.15 851 25.13 24.5 76 24 3 37.5
15:25 1021 30.15 851 25.13 24.2 75.5 24 2.3 36.1
15:30 1021 30.15 851 25.13 24.1 75.4 24 2.6 36.6
15:35 1022 30.18 851 25.13 24.1 75.3 24 2.7 36.8
15:40 1022 30.18 851 25.13 23.9 75 24 2.6 36.7
15:45 1022 30.18 851 25.13 24.1 75.4 25 3 37.4
15:50 1022 30.18 851 25.13 23.8 74.9 25 2.9 37.2
15:55 1022 30.18 851 25.13 24 75.1 24 2.2 36
16:00 1022 30.18 851 25.13 24.2 75.6 24 2.7 36.9
16:05 1022 30.18 851 25.13 24.2 75.6 24 2.6 36.7
16:10 1022 30.18 851 25.13 24.5 76 24 2.6 36.7
16:15 1022 30.18 851 25.13 24.8 76.6 24 3 37.5
16:20 1022 30.18 851 25.13 24.7 76.4 24 3 37.5
16:25 1022 30.18 851 25.13 24.3 75.7 25 3 37.5
16:30 1022 30.18 851 25.13 23.8 74.8 26 3.4 38.1
16:35 1022 30.18 851 25.13 23.6 74.5 26 3.2 37.8
16:40 1022 30.18 851 25.13 23.5 74.3 26 3.4 38
16:45 1022 30.18 851 25.13 23.5 74.3 25 2.6 36.7
16:50 1022 30.18 851 25.13 23.7 74.6 26 3.1 37.6
16:55 1022 30.18 851 25.13 23.5 74.3 28 4.4 39.9
17:00 1022 30.18 851 25.13 23.3 73.9 26 2.9 37.2
17:05 1022 30.18 851 25.13 23.6 74.5 27 3.6 38.4
17:10 1022 30.18 851 25.13 23.6 74.4 28 4.4 39.9
17:15 1021 30.15 851 25.13 23.4 74.1 30 5.2 41.4
17:20 1021 30.15 851 25.13 23.2 73.8 30 4.7 40.4
17:25 1021 30.15 851 25.13 23.4 74.1 28 4 39.3
17:30 1021 30.15 850 25.1 23.3 74 35 7.1 44.7
17:35 1021 30.15 851 25.13 22.5 72.5 36 6.7 44.1
17:40 1021 30.15 850 25.1 22 71.6 34 5.6 42.1
17:45 1021 30.15 850 25.1 22.1 71.8 34 5.5 42
17:50 1021 30.15 850 25.1 22.4 72.2 33 5.3 41.6
17:55 1021 30.15 850 25.1 22.6 72.6 31 4.9 40.9
18:00 1021 30.15 850 25.1 22.9 73.2 32 5.4 41.6
18:05 1021 30.15 850 25.1 22.9 73.2 33 6.1 42.9
18:10 1021 30.15 850 25.1 22.7 72.8 36 7.1 44.7
18:15 1021 30.15 850 25.1 22.7 72.9 31 4.7 40.5
18:20 1021 30.15 850 25.1 23.2 73.8 29 4.2 39.6
18:25 1021 30.15 850 25.1 23.5 74.2 28 4.3 39.7
18:30 1021 30.15 850 25.1 23.5 74.2 29 4.6 40.3
18:35 1021 30.15 850 25.1 23.5 74.2 29 4.4 40
18:40 1021 30.15 850 25.1 23.7 74.6 28 4.5 40.2
18:45 1021 30.15 850 25.1 23.7 74.6 29 4.8 40.6
18:50 1021 30.15 850 25.1 23.6 74.5 31 5.5 41.9
18:55 1021 30.15 850 25.1 23.4 74 30 5.3 41.5
19:00 1021 30.15 850 25.1 23.5 74.2 29 4.6 40.2
19:05 1021 30.15 850 25.1 23.7 74.7 28 4.2 39.6
19:10 1021 30.15 850 25.1 23.8 74.9 29 5.1 41.2
19:15 1021 30.15 850 25.1 23.4 74.1 32 6.2 43.1
19:20 1021 30.15 850 25.1 23.1 73.6 32 5.7 42.2
19:25 1020 30.12 850 25.1 23.4 74 29 4.8 40.6
19:30 1020 30.12 849 25.07 23.6 74.5 29 4.7 40.4
19:35 1020 30.12 849 25.07 23.8 74.8 29 4.6 40.4
19:40 1020 30.12 849 25.07 23.8 74.8 30 5.4 41.8
19:45 1020 30.12 849 25.07 23.8 74.9 29 5 41
19:50 1020 30.12 849 25.07 23.7 74.7 31 6 42.8
19:55 1020 30.12 849 25.07 23.7 74.6 29 4.9 40.8
20:00 1020 30.12 849 25.07 23.7 74.6 30 5.1 41.2
20:05 1020 30.12 849 25.07 23.7 74.6 31 5.6 42
20:10 1020 30.12 849 25.07 23.5 74.2 30 5.2 41.4
20:15 1020 30.12 849 25.07 23.5 74.3 30 5.2 41.3
20:20 1020 30.12 849 25.07 23.5 74.3 29 4.7 40.4
20:25 1020 30.12 849 25.07 23.5 74.3 30 5 41
20:30 1020 30.12 849 25.07 23.4 74.2 29 4.7 40.5
20:35 1020 30.12 849 25.07 23.3 74 29 4.6 40.3
20:40 1020 30.12 849 25.07 23.3 73.9 29 4.7 40.4
20:45 1020 30.12 849 25.07 23.1 73.6 29 4.1 39.4
20:50 1020 30.12 849 25.07 23.1 73.5 29 4.3 39.8
20:55 1020 30.12 849 25.07 22.8 73.1 32 5.6 42.1
21:00 1019 30.09 849 25.07 22.6 72.6 31 4.8 40.6
21:05 1019 30.09 849 25.07 22.4 72.3 31 4.8 40.6
21:10 1019 30.09 849 25.07 22.3 72.1 29 3.6 38.5
21:15 1019 30.09 849 25.07 22.4 72.3 32 5.2 41.3
21:20 1020 30.12 849 25.07 21.4 70.6 38 6.8 44.3
21:25 1019 30.09 849 25.07 20.3 68.6 46 8.4 47.1
21:30 1019 30.09 849 25.07 19.8 67.7 42 6.6 43.9
21:35 1019 30.09 849 25.07 20.1 68.2 38 5.6 42.1
21:40 1019 30.09 849 25.07 20 68 39 5.7 42.3
21:45 1019 30.09 849 25.07 19.8 67.6 45 7.7 45.8
21:50 1019 30.09 849 25.07 19.2 66.6 44 6.8 44.2
21:55 1019 30.09 849 25.07 19.2 66.5 42 6 42.8
22:00 1019 30.09 849 25.07 19.6 67.3 40 5.6 42.1
22:05 1019 30.09 849 25.07 18.8 65.9 43 6.3 43.3
22:10 1019 30.09 849 25.07 18.3 65 45 6.2 43.2
22:15 1019 30.09 849 25.07 18.2 64.7 44 6 42.7
22:20 1020 30.12 849 25.07 18.1 64.5 43 5.3 41.6
22:25 1020 30.12 849 25.07 18.1 64.6 44 5.8 42.5
22:30 1020 30.12 849 25.07 17.8 64 44 5.5 42
22:35 1020 30.12 849 25.07 17.9 64.1 42 5 41
22:40 1020 30.12 849 25.07 18.2 64.7 40 4.6 40.2
22:45 1020 30.12 849 25.07 18.2 64.8 43 5.5 41.9
22:50 1020 30.12 849 25.07 18.2 64.7 40 4.6 40.2
22:55 1020 30.12 849 25.07 18 64.4 42 5.1 41.2
23:00 1020 30.12 849 25.07 17.6 63.8 43 5 41
23:05 1020 30.12 849 25.07 17.8 64 42 4.8 40.7
23:10 1020 30.12 849 25.07 17.8 64 42 4.8 40.7
23:15 1020 30.12 849 25.07 17.7 63.9 44 5.5 41.8
23:20 1020 30.12 849 25.07 17.7 63.8 43 4.9 40.9
23:25 1020 30.12 849 25.07 17.6 63.7 42 4.7 40.4
23:30 1020 30.12 849 25.07 17.8 64.1 42 4.7 40.5
23:35 1020 30.12 849 25.07 17.6 63.8 42 4.9 40.7
23:40 1020 30.12 849 25.07 17.4 63.3 43 4.8 40.7
23:45 1020 30.12 849 25.07 17.3 63.1 42 4.4 39.9
23:50 1020 30.12 849 25.07 17.4 63.4 43 4.7 40.4
23:55 1020 30.12 849 25.07 17.1 62.7 45 5.1 41.2
24:00 1020 30.12 849 25.07 16.7 62.1 44 4.5 40.1